sensor_id;sensor_type;location;lat;lon;timestamp;pressure;altitude;pressure_sealevel;temperature;humidity
34454;BME280;60061;52.080;5.312;2022-09-03T00:00:55;101073.0;;;18.86;48.47
34454;BME280;60061;52.080;5.312;2022-09-03T00:02:39;101071.0;;;18.93;48.42
34454;BME280;60061;52.080;5.312;2022-09-03T00:06:09;101074.0;;;18.93;48.41
34454;BME280;60061;52.080;5.312;2022-09-03T00:07:55;101068.0;;;18.96;48.31
34454;BME280;60061;52.080;5.312;2022-09-03T00:09:38;101067.0;;;18.89;48.55
34454;BME280;60061;52.080;5.312;2022-09-03T00:11:19;101066.0;;;18.96;48.44
34454;BME280;60061;52.080;5.312;2022-09-03T00:13:02;101064.0;;;18.75;49.12
34454;BME280;60061;52.080;5.312;2022-09-03T00:16:28;101066.0;;;18.73;49.0
34454;BME280;60061;52.080;5.312;2022-09-03T00:18:17;101064.0;;;18.75;49.2
34454;BME280;60061;52.080;5.312;2022-09-03T00:19:59;101065.0;;;18.77;49.03
34454;BME280;60061;52.080;5.312;2022-09-03T00:21:46;101066.0;;;18.84;48.75
34454;BME280;60061;52.080;5.312;2022-09-03T00:26:51;101069.0;;;18.84;48.79
34454;BME280;60061;52.080;5.312;2022-09-03T00:28:35;101065.0;;;18.77;48.92
34454;BME280;60061;52.080;5.312;2022-09-03T00:30:17;101059.0;;;18.7;49.24
34454;BME280;60061;52.080;5.312;2022-09-03T00:31:57;101061.0;;;18.57;49.52
34454;BME280;60061;52.080;5.312;2022-09-03T00:35:23;101063.0;;;18.63;49.49
34454;BME280;60061;52.080;5.312;2022-09-03T00:37:02;101056.0;;;18.66;49.25
34454;BME280;60061;52.080;5.312;2022-09-03T00:38:40;101056.0;;;18.53;49.65
34454;BME280;60061;52.080;5.312;2022-09-03T00:40:37;101052.0;;;18.52;49.59
34454;BME280;60061;52.080;5.312;2022-09-03T00:42:32;101055.0;;;18.52;49.64
34454;BME280;60061;52.080;5.312;2022-09-03T00:44:56;101055.0;;;18.46;50.15
34454;BME280;60061;52.080;5.312;2022-09-03T00:47:04;101057.0;;;18.52;49.62
34454;BME280;60061;52.080;5.312;2022-09-03T00:48:57;101056.0;;;18.36;50.27
34454;BME280;60061;52.080;5.312;2022-09-03T00:50:59;101056.0;;;18.25;50.42
34454;BME280;60061;52.080;5.312;2022-09-03T00:52:46;101052.0;;;18.29;50.41
34454;BME280;60061;52.080;5.312;2022-09-03T00:56:28;101057.0;;;18.36;50.14
34454;BME280;60061;52.080;5.312;2022-09-03T00:58:20;101055.0;;;18.43;49.86
34454;BME280;60061;52.080;5.312;2022-09-03T01:00:06;101049.0;;;18.28;50.75
34454;BME280;60061;52.080;5.312;2022-09-03T01:01:48;101050.0;;;18.36;50.54
34454;BME280;60061;52.080;5.312;2022-09-03T01:03:38;101050.0;;;18.39;50.27
34454;BME280;60061;52.080;5.312;2022-09-03T01:05:41;101053.0;;;18.32;50.44
34454;BME280;60061;52.080;5.312;2022-09-03T01:08:24;101049.0;;;18.34;50.44
34454;BME280;60061;52.080;5.312;2022-09-03T01:10:15;101052.0;;;18.25;50.81
34454;BME280;60061;52.080;5.312;2022-09-03T01:12:05;101053.0;;;18.21;50.92
34454;BME280;60061;52.080;5.312;2022-09-03T01:13:49;101055.0;;;18.21;50.77
34454;BME280;60061;52.080;5.312;2022-09-03T01:17:28;101059.0;;;18.34;50.32
34454;BME280;60061;52.080;5.312;2022-09-03T01:19:26;101058.0;;;18.27;50.81
34454;BME280;60061;52.080;5.312;2022-09-03T01:21:27;101060.0;;;18.25;50.89
34454;BME280;60061;52.080;5.312;2022-09-03T01:23:29;101059.0;;;18.25;50.68
34454;BME280;60061;52.080;5.312;2022-09-03T01:26:43;101055.0;;;18.25;50.76
34454;BME280;60061;52.080;5.312;2022-09-03T01:28:37;101055.0;;;18.34;50.8
34454;BME280;60061;52.080;5.312;2022-09-03T01:30:18;101058.0;;;18.45;50.28
34454;BME280;60061;52.080;5.312;2022-09-03T01:33:49;101055.0;;;18.41;50.35
34454;BME280;60061;52.080;5.312;2022-09-03T01:35:32;101061.0;;;18.38;50.88
34454;BME280;60061;52.080;5.312;2022-09-03T01:37:18;101067.0;;;18.34;50.8
34454;BME280;60061;52.080;5.312;2022-09-03T01:39:11;101068.0;;;18.3;50.74
34454;BME280;60061;52.080;5.312;2022-09-03T01:41:01;101067.0;;;18.34;50.95
34454;BME280;60061;52.080;5.312;2022-09-03T01:44:46;101063.0;;;18.38;50.45
34454;BME280;60061;52.080;5.312;2022-09-03T01:46:36;101065.0;;;18.37;50.58
34454;BME280;60061;52.080;5.312;2022-09-03T01:48:26;101065.0;;;18.41;50.29
34454;BME280;60061;52.080;5.312;2022-09-03T01:50:13;101063.0;;;18.41;50.5
34454;BME280;60061;52.080;5.312;2022-09-03T01:52:02;101064.0;;;18.31;50.71
34454;BME280;60061;52.080;5.312;2022-09-03T01:56:32;101062.0;;;18.32;50.74
34454;BME280;60061;52.080;5.312;2022-09-03T01:58:23;101064.0;;;18.39;50.73
34454;BME280;60061;52.080;5.312;2022-09-03T02:00:07;101068.0;;;18.41;50.49
34454;BME280;60061;52.080;5.312;2022-09-03T02:01:45;101065.0;;;18.21;51.26
34454;BME280;60061;52.080;5.312;2022-09-03T02:05:16;101065.0;;;18.21;51.0
34454;BME280;60061;52.080;5.312;2022-09-03T02:06:56;101065.0;;;18.02;51.73
34454;BME280;60061;52.080;5.312;2022-09-03T02:08:33;101062.0;;;18.09;51.55
34454;BME280;60061;52.080;5.312;2022-09-03T02:10:12;101058.0;;;18.11;51.36
34454;BME280;60061;52.080;5.312;2022-09-03T02:13:37;101049.0;;;18.27;50.82
34454;BME280;60061;52.080;5.312;2022-09-03T02:15:17;101056.0;;;18.05;51.29
34454;BME280;60061;52.080;5.312;2022-09-03T02:16:54;101045.0;;;18.16;51.15
34454;BME280;60061;52.080;5.312;2022-09-03T02:18:37;101049.0;;;18.07;51.32
34454;BME280;60061;52.080;5.312;2022-09-03T02:21:57;101052.0;;;18.03;51.52
34454;BME280;60061;52.080;5.312;2022-09-03T02:23:34;101055.0;;;18.0;51.94
34454;BME280;60061;52.080;5.312;2022-09-03T02:25:10;101055.0;;;17.86;52.09
34454;BME280;60061;52.080;5.312;2022-09-03T02:26:49;101059.0;;;17.97;51.54
34454;BME280;60061;52.080;5.312;2022-09-03T02:30:05;101055.0;;;17.93;51.94
34454;BME280;60061;52.080;5.312;2022-09-03T02:31:42;101058.0;;;17.88;51.95
34454;BME280;60061;52.080;5.312;2022-09-03T02:33:18;101055.0;;;17.82;51.99
34454;BME280;60061;52.080;5.312;2022-09-03T02:36:31;101057.0;;;17.72;52.73
34454;BME280;60061;52.080;5.312;2022-09-03T02:38:12;101053.0;;;17.71;52.43
34454;BME280;60061;52.080;5.312;2022-09-03T02:39:51;101051.0;;;17.79;52.2
34454;BME280;60061;52.080;5.312;2022-09-03T02:41:27;101050.0;;;17.71;52.67
34454;BME280;60061;52.080;5.312;2022-09-03T02:44:47;101049.0;;;17.47;53.52
34454;BME280;60061;52.080;5.312;2022-09-03T02:48:16;101050.0;;;17.48;53.38
34454;BME280;60061;52.080;5.312;2022-09-03T02:49:56;101047.0;;;17.54;53.14
34454;BME280;60061;52.080;5.312;2022-09-03T02:53:12;101050.0;;;17.46;53.53
34454;BME280;60061;52.080;5.312;2022-09-03T02:54:48;101045.0;;;17.37;53.91
34454;BME280;60061;52.080;5.312;2022-09-03T02:56:26;101047.0;;;17.45;53.66
34454;BME280;60061;52.080;5.312;2022-09-03T02:59:43;101041.0;;;17.5;53.38
34454;BME280;60061;52.080;5.312;2022-09-03T03:01:20;101041.0;;;17.59;52.94
34454;BME280;60061;52.080;5.312;2022-09-03T03:02:57;101038.0;;;17.66;52.85
34454;BME280;60061;52.080;5.312;2022-09-03T03:04:33;101037.0;;;17.55;53.3
34454;BME280;60061;52.080;5.312;2022-09-03T03:07:47;101041.0;;;17.53;53.06
34454;BME280;60061;52.080;5.312;2022-09-03T03:09:23;101037.0;;;17.43;53.55
34454;BME280;60061;52.080;5.312;2022-09-03T03:11:01;101040.0;;;17.56;53.23
34454;BME280;60061;52.080;5.312;2022-09-03T03:14:15;101040.0;;;17.52;53.55
34454;BME280;60061;52.080;5.312;2022-09-03T03:15:55;101037.0;;;17.59;53.34
34454;BME280;60061;52.080;5.312;2022-09-03T03:17:31;101039.0;;;17.55;53.52
34454;BME280;60061;52.080;5.312;2022-09-03T03:19:07;101033.0;;;17.71;52.91
34454;BME280;60061;52.080;5.312;2022-09-03T03:22:19;101025.0;;;17.63;53.37
34454;BME280;60061;52.080;5.312;2022-09-03T03:23:56;101027.0;;;17.61;53.05
34454;BME280;60061;52.080;5.312;2022-09-03T03:25:32;101024.0;;;17.62;53.07
34454;BME280;60061;52.080;5.312;2022-09-03T03:28:49;101023.0;;;17.59;53.33
34454;BME280;60061;52.080;5.312;2022-09-03T03:30:26;101024.0;;;17.61;53.02
34454;BME280;60061;52.080;5.312;2022-09-03T03:32:02;101023.0;;;17.46;53.75
34454;BME280;60061;52.080;5.312;2022-09-03T03:35:16;101023.0;;;17.55;53.17
34454;BME280;60061;52.080;5.312;2022-09-03T03:36:52;101030.0;;;17.43;53.74
34454;BME280;60061;52.080;5.312;2022-09-03T03:38:28;101023.0;;;17.52;53.39
34454;BME280;60061;52.080;5.312;2022-09-03T03:40:06;101036.0;;;17.53;53.5
34454;BME280;60061;52.080;5.312;2022-09-03T03:43:18;101036.0;;;17.52;53.59
34454;BME280;60061;52.080;5.312;2022-09-03T03:44:55;101038.0;;;17.45;53.62
34454;BME280;60061;52.080;5.312;2022-09-03T03:46:33;101039.0;;;17.36;54.22
34454;BME280;60061;52.080;5.312;2022-09-03T03:49:46;101040.0;;;17.32;54.27
34454;BME280;60061;52.080;5.312;2022-09-03T03:51:23;101037.0;;;17.31;54.16
34454;BME280;60061;52.080;5.312;2022-09-03T03:52:59;101039.0;;;17.25;54.5
34454;BME280;60061;52.080;5.312;2022-09-03T03:54:36;101038.0;;;17.29;53.98
34454;BME280;60061;52.080;5.312;2022-09-03T03:57:50;101034.0;;;17.34;53.98
34454;BME280;60061;52.080;5.312;2022-09-03T03:59:26;101037.0;;;17.23;54.42
34454;BME280;60061;52.080;5.312;2022-09-03T04:01:04;101039.0;;;17.27;54.28
34454;BME280;60061;52.080;5.312;2022-09-03T04:04:17;101036.0;;;17.27;54.45
34454;BME280;60061;52.080;5.312;2022-09-03T04:05:54;101037.0;;;17.25;54.52
34454;BME280;60061;52.080;5.312;2022-09-03T04:07:31;101035.0;;;17.29;54.51
34454;BME280;60061;52.080;5.312;2022-09-03T04:10:43;101031.0;;;17.14;55.08
34454;BME280;60061;52.080;5.312;2022-09-03T04:12:19;101031.0;;;17.34;54.03
34454;BME280;60061;52.080;5.312;2022-09-03T04:13:55;101034.0;;;17.37;53.98
34454;BME280;60061;52.080;5.312;2022-09-03T04:15:31;101037.0;;;17.43;53.8
34454;BME280;60061;52.080;5.312;2022-09-03T04:18:44;101033.0;;;17.41;53.69
34454;BME280;60061;52.080;5.312;2022-09-03T04:20:21;101030.0;;;17.18;54.87
34454;BME280;60061;52.080;5.312;2022-09-03T04:21:57;101032.0;;;17.16;54.9
34454;BME280;60061;52.080;5.312;2022-09-03T04:25:13;101031.0;;;17.22;54.81
34454;BME280;60061;52.080;5.312;2022-09-03T04:26:49;101031.0;;;17.28;54.3
34454;BME280;60061;52.080;5.312;2022-09-03T04:28:27;101028.0;;;17.2;54.91
34454;BME280;60061;52.080;5.312;2022-09-03T04:32:52;101030.0;;;17.22;54.87
34454;BME280;60061;52.080;5.312;2022-09-03T04:34:28;101026.0;;;17.09;55.36
34454;BME280;60061;52.080;5.312;2022-09-03T04:37:45;101024.0;;;16.98;55.37
34454;BME280;60061;52.080;5.312;2022-09-03T04:39:21;101021.0;;;17.07;55.01
34454;BME280;60061;52.080;5.312;2022-09-03T04:40:58;101024.0;;;16.93;55.76
34454;BME280;60061;52.080;5.312;2022-09-03T04:44:11;101021.0;;;16.97;55.34
34454;BME280;60061;52.080;5.312;2022-09-03T04:45:46;101026.0;;;16.95;55.53
34454;BME280;60061;52.080;5.312;2022-09-03T04:47:23;101026.0;;;17.02;55.2
34454;BME280;60061;52.080;5.312;2022-09-03T04:48:59;101035.0;;;17.12;55.03
34454;BME280;60061;52.080;5.312;2022-09-03T04:52:12;101032.0;;;17.09;55.0
34454;BME280;60061;52.080;5.312;2022-09-03T04:53:53;101037.0;;;17.21;54.43
34454;BME280;60061;52.080;5.312;2022-09-03T04:55:33;101041.0;;;17.2;54.5
34454;BME280;60061;52.080;5.312;2022-09-03T04:58:46;101041.0;;;17.12;55.11
34454;BME280;60061;52.080;5.312;2022-09-03T05:00:23;101033.0;;;17.16;55.14
34454;BME280;60061;52.080;5.312;2022-09-03T05:01:59;101038.0;;;17.16;55.04
34454;BME280;60061;52.080;5.312;2022-09-03T05:05:13;101037.0;;;17.16;54.84
34454;BME280;60061;52.080;5.312;2022-09-03T05:06:49;101036.0;;;17.06;55.16
34454;BME280;60061;52.080;5.312;2022-09-03T05:08:25;101035.0;;;17.09;55.01
34454;BME280;60061;52.080;5.312;2022-09-03T05:10:04;101036.0;;;17.0;55.33
34454;BME280;60061;52.080;5.312;2022-09-03T05:13:19;101036.0;;;17.11;54.89
34454;BME280;60061;52.080;5.312;2022-09-03T05:14:55;101042.0;;;16.9;55.54
34454;BME280;60061;52.080;5.312;2022-09-03T05:16:31;101041.0;;;16.9;55.62
34454;BME280;60061;52.080;5.312;2022-09-03T05:19:44;101044.0;;;16.93;55.76
34454;BME280;60061;52.080;5.312;2022-09-03T05:21:22;101037.0;;;16.96;55.73
34454;BME280;60061;52.080;5.312;2022-09-03T05:23:00;101031.0;;;16.95;55.67
34454;BME280;60061;52.080;5.312;2022-09-03T05:24:37;101031.0;;;17.07;55.44
34454;BME280;60061;52.080;5.312;2022-09-03T05:27:53;101036.0;;;17.06;55.23
34454;BME280;60061;52.080;5.312;2022-09-03T05:29:29;101030.0;;;17.12;54.96
34454;BME280;60061;52.080;5.312;2022-09-03T05:31:07;101030.0;;;17.09;55.25
34454;BME280;60061;52.080;5.312;2022-09-03T05:34:20;101030.0;;;17.12;55.28
34454;BME280;60061;52.080;5.312;2022-09-03T05:36:00;101030.0;;;17.07;55.23
34454;BME280;60061;52.080;5.312;2022-09-03T05:37:36;101032.0;;;17.07;55.3
34454;BME280;60061;52.080;5.312;2022-09-03T05:39:12;101030.0;;;17.04;55.26
34454;BME280;60061;52.080;5.312;2022-09-03T05:42:27;101030.0;;;16.97;55.8
34454;BME280;60061;52.080;5.312;2022-09-03T05:44:05;101030.0;;;17.07;55.52
34454;BME280;60061;52.080;5.312;2022-09-03T05:45:41;101033.0;;;17.0;55.78
34454;BME280;60061;52.080;5.312;2022-09-03T05:48:53;101035.0;;;17.02;55.67
34454;BME280;60061;52.080;5.312;2022-09-03T05:50:30;101037.0;;;16.9;56.2
34454;BME280;60061;52.080;5.312;2022-09-03T05:52:06;101036.0;;;17.0;55.84
34454;BME280;60061;52.080;5.312;2022-09-03T05:55:20;101041.0;;;17.0;55.95
34454;BME280;60061;52.080;5.312;2022-09-03T05:56:56;101042.0;;;17.0;55.85
34454;BME280;60061;52.080;5.312;2022-09-03T05:58:34;101037.0;;;17.05;55.98
34454;BME280;60061;52.080;5.312;2022-09-03T06:00:11;101040.0;;;17.04;55.95
34454;BME280;60061;52.080;5.312;2022-09-03T06:03:25;101040.0;;;16.98;56.44
34454;BME280;60061;52.080;5.312;2022-09-03T06:05:01;101043.0;;;17.11;55.98
34454;BME280;60061;52.080;5.312;2022-09-03T06:06:39;101038.0;;;17.02;56.31
34454;BME280;60061;52.080;5.312;2022-09-03T06:09:52;101041.0;;;16.98;56.54
34454;BME280;60061;52.080;5.312;2022-09-03T06:11:29;101039.0;;;17.02;56.35
34454;BME280;60061;52.080;5.312;2022-09-03T06:13:06;101036.0;;;17.07;56.78
34454;BME280;60061;52.080;5.312;2022-09-03T06:16:18;101043.0;;;16.96;56.7
34454;BME280;60061;52.080;5.312;2022-09-03T06:17:55;101037.0;;;16.93;56.67
34454;BME280;60061;52.080;5.312;2022-09-03T06:19:31;101037.0;;;16.95;57.04
34454;BME280;60061;52.080;5.312;2022-09-03T06:21:08;101047.0;;;17.03;56.54
34454;BME280;60061;52.080;5.312;2022-09-03T06:24:26;101041.0;;;17.11;56.54
34454;BME280;60061;52.080;5.312;2022-09-03T06:26:04;101043.0;;;17.16;56.44
34454;BME280;60061;52.080;5.312;2022-09-03T06:27:41;101038.0;;;17.29;55.9
34454;BME280;60061;52.080;5.312;2022-09-03T06:30:57;101039.0;;;17.39;55.57
34454;BME280;60061;52.080;5.312;2022-09-03T06:32:42;101038.0;;;17.41;56.09
34454;BME280;60061;52.080;5.312;2022-09-03T06:34:18;101037.0;;;17.31;56.36
34454;BME280;60061;52.080;5.312;2022-09-03T06:35:57;101039.0;;;17.43;55.98
34454;BME280;60061;52.080;5.312;2022-09-03T06:39:14;101035.0;;;17.45;55.85
34454;BME280;60061;52.080;5.312;2022-09-03T06:40:52;101032.0;;;17.59;55.69
34454;BME280;60061;52.080;5.312;2022-09-03T06:42:30;101036.0;;;17.61;55.71
34454;BME280;60061;52.080;5.312;2022-09-03T06:44:10;101040.0;;;17.75;55.62
34454;BME280;60061;52.080;5.312;2022-09-03T06:47:32;101035.0;;;17.88;55.27
34454;BME280;60061;52.080;5.312;2022-09-03T06:49:09;101035.0;;;17.96;55.17
34454;BME280;60061;52.080;5.312;2022-09-03T06:50:53;101037.0;;;18.13;54.7
34454;BME280;60061;52.080;5.312;2022-09-03T06:52:41;101042.0;;;18.11;54.75
34454;BME280;60061;52.080;5.312;2022-09-03T06:55:55;101046.0;;;18.11;55.02
34454;BME280;60061;52.080;5.312;2022-09-03T06:57:32;101048.0;;;18.06;55.25
34454;BME280;60061;52.080;5.312;2022-09-03T06:59:10;101038.0;;;18.2;54.93
34454;BME280;60061;52.080;5.312;2022-09-03T07:00:46;101042.0;;;18.27;54.8
34454;BME280;60061;52.080;5.312;2022-09-03T07:04:01;101043.0;;;18.5;54.17
34454;BME280;60061;52.080;5.312;2022-09-03T07:05:38;101044.0;;;18.53;54.62
34454;BME280;60061;52.080;5.312;2022-09-03T07:07:15;101040.0;;;18.52;54.66
34454;BME280;60061;52.080;5.312;2022-09-03T07:10:28;101040.0;;;18.61;54.73
34454;BME280;60061;52.080;5.312;2022-09-03T07:12:06;101040.0;;;18.82;53.71
34454;BME280;60061;52.080;5.312;2022-09-03T07:13:45;101042.0;;;19.0;53.78
34454;BME280;60061;52.080;5.312;2022-09-03T07:16:58;101042.0;;;19.0;54.55
34454;BME280;60061;52.080;5.312;2022-09-03T07:18:36;101035.0;;;19.14;53.16
34454;BME280;60061;52.080;5.312;2022-09-03T07:20:12;101036.0;;;19.12;53.61
34454;BME280;60061;52.080;5.312;2022-09-03T07:21:48;101034.0;;;19.36;54.27
34454;BME280;60061;52.080;5.312;2022-09-03T07:25:01;101035.0;;;19.55;52.93
34454;BME280;60061;52.080;5.312;2022-09-03T07:26:39;101035.0;;;19.68;52.87
34454;BME280;60061;52.080;5.312;2022-09-03T07:28:16;101038.0;;;19.86;52.36
34454;BME280;60061;52.080;5.312;2022-09-03T07:31:30;101039.0;;;19.91;52.55
34454;BME280;60061;52.080;5.312;2022-09-03T07:33:08;101038.0;;;20.09;52.18
34454;BME280;60061;52.080;5.312;2022-09-03T07:34:44;101043.0;;;20.25;51.96
34454;BME280;60061;52.080;5.312;2022-09-03T07:37:58;101043.0;;;20.27;51.0
34454;BME280;60061;52.080;5.312;2022-09-03T07:39:34;101041.0;;;20.46;51.06
34454;BME280;60061;52.080;5.312;2022-09-03T07:41:12;101038.0;;;20.49;50.51
34454;BME280;60061;52.080;5.312;2022-09-03T07:42:55;101037.0;;;20.62;50.68
34454;BME280;60061;52.080;5.312;2022-09-03T07:46:08;101037.0;;;20.88;50.4
34454;BME280;60061;52.080;5.312;2022-09-03T07:47:46;101044.0;;;20.96;49.91
34454;BME280;60061;52.080;5.312;2022-09-03T07:49:22;101043.0;;;21.13;49.27
34454;BME280;60061;52.080;5.312;2022-09-03T07:52:37;101047.0;;;21.24;49.14
34454;BME280;60061;52.080;5.312;2022-09-03T07:54:13;101044.0;;;21.27;48.63
34454;BME280;60061;52.080;5.312;2022-09-03T07:55:50;101045.0;;;21.39;48.82
34454;BME280;60061;52.080;5.312;2022-09-03T07:57:27;101045.0;;;21.36;47.75
34454;BME280;60061;52.080;5.312;2022-09-03T08:00:40;101045.0;;;21.47;47.01
34454;BME280;60061;52.080;5.312;2022-09-03T08:02:16;101045.0;;;21.36;47.25
34454;BME280;60061;52.080;5.312;2022-09-03T08:03:54;101048.0;;;21.51;47.04
34454;BME280;60061;52.080;5.312;2022-09-03T08:07:08;101046.0;;;21.76;47.44
34454;BME280;60061;52.080;5.312;2022-09-03T08:08:44;101044.0;;;21.84;46.21
34454;BME280;60061;52.080;5.312;2022-09-03T08:10:21;101047.0;;;21.88;45.35
34454;BME280;60061;52.080;5.312;2022-09-03T08:11:57;101052.0;;;22.08;46.42
34454;BME280;60061;52.080;5.312;2022-09-03T08:15:10;101049.0;;;22.22;44.72
34454;BME280;60061;52.080;5.312;2022-09-03T08:16:47;101051.0;;;22.4;46.27
34454;BME280;60061;52.080;5.312;2022-09-03T08:18:23;101053.0;;;22.45;44.87
34454;BME280;60061;52.080;5.312;2022-09-03T08:21:36;101058.0;;;22.37;44.52
34454;BME280;60061;52.080;5.312;2022-09-03T08:23:13;101058.0;;;22.5;44.25
34454;BME280;60061;52.080;5.312;2022-09-03T08:24:49;101057.0;;;22.62;44.37
34454;BME280;60061;52.080;5.312;2022-09-03T08:28:02;101055.0;;;22.86;43.75
34454;BME280;60061;52.080;5.312;2022-09-03T08:29:38;101058.0;;;22.9;43.73
34454;BME280;60061;52.080;5.312;2022-09-03T08:31:16;101059.0;;;22.97;43.7
34454;BME280;60061;52.080;5.312;2022-09-03T08:32:54;101059.0;;;22.98;42.9
34454;BME280;60061;52.080;5.312;2022-09-03T08:36:08;101060.0;;;22.99;43.02
34454;BME280;60061;52.080;5.312;2022-09-03T08:37:48;101056.0;;;23.19;43.29
34454;BME280;60061;52.080;5.312;2022-09-03T08:39:25;101055.0;;;23.33;43.38
34454;BME280;60061;52.080;5.312;2022-09-03T08:42:49;101057.0;;;23.56;42.87
34454;BME280;60061;52.080;5.312;2022-09-03T08:44:43;101059.0;;;23.61;42.9
34454;BME280;60061;52.080;5.312;2022-09-03T08:46:23;101055.0;;;23.79;42.25
34454;BME280;60061;52.080;5.312;2022-09-03T08:48:04;101058.0;;;23.93;42.26
34454;BME280;60061;52.080;5.312;2022-09-03T08:49:44;101060.0;;;23.91;41.91
34454;BME280;60061;52.080;5.312;2022-09-03T08:53:08;101063.0;;;23.97;41.79
34454;BME280;60061;52.080;5.312;2022-09-03T08:54:49;101066.0;;;23.92;41.61
34454;BME280;60061;52.080;5.312;2022-09-03T08:56:29;101066.0;;;23.73;41.93
34454;BME280;60061;52.080;5.312;2022-09-03T08:58:10;101061.0;;;23.71;42.0
34454;BME280;60061;52.080;5.312;2022-09-03T09:01:40;101061.0;;;23.84;42.16
34454;BME280;60061;52.080;5.312;2022-09-03T09:03:32;101056.0;;;23.73;41.49
34454;BME280;60061;52.080;5.312;2022-09-03T09:05:18;101058.0;;;23.77;42.12
34454;BME280;60061;52.080;5.312;2022-09-03T09:07:08;101059.0;;;23.88;41.64
34454;BME280;60061;52.080;5.312;2022-09-03T09:08:53;101057.0;;;24.11;40.92
34454;BME280;60061;52.080;5.312;2022-09-03T09:10:43;101061.0;;;24.07;40.67
34454;BME280;60061;52.080;5.312;2022-09-03T09:12:39;101057.0;;;24.16;41.02
34454;BME280;60061;52.080;5.312;2022-09-03T09:16:14;101059.0;;;24.38;40.87
34454;BME280;60061;52.080;5.312;2022-09-03T09:18:07;101059.0;;;24.41;41.41
34454;BME280;60061;52.080;5.312;2022-09-03T09:20:00;101059.0;;;24.5;40.64
34454;BME280;60061;52.080;5.312;2022-09-03T09:21:48;101058.0;;;24.64;40.67
34454;BME280;60061;52.080;5.312;2022-09-03T09:23:30;101064.0;;;24.59;41.46
34454;BME280;60061;52.080;5.312;2022-09-03T09:25:15;101062.0;;;24.77;40.68
34454;BME280;60061;52.080;5.312;2022-09-03T09:28:36;101062.0;;;24.82;40.32
34454;BME280;60061;52.080;5.312;2022-09-03T09:30:17;101059.0;;;25.05;39.81
34454;BME280;60061;52.080;5.312;2022-09-03T09:31:54;101052.0;;;25.18;40.32
34454;BME280;60061;52.080;5.312;2022-09-03T09:33:31;101056.0;;;25.03;40.78
34454;BME280;60061;52.080;5.312;2022-09-03T09:36:47;101052.0;;;25.14;39.65
34454;BME280;60061;52.080;5.312;2022-09-03T09:38:28;101053.0;;;25.22;39.49
34454;BME280;60061;52.080;5.312;2022-09-03T09:40:06;101058.0;;;25.22;39.71
34454;BME280;60061;52.080;5.312;2022-09-03T09:43:32;101064.0;;;25.26;39.42
34454;BME280;60061;52.080;5.312;2022-09-03T09:45:09;101060.0;;;25.23;39.22
34454;BME280;60061;52.080;5.312;2022-09-03T09:46:46;101063.0;;;25.36;39.79
34454;BME280;60061;52.080;5.312;2022-09-03T09:48:27;101061.0;;;25.4;39.06
34454;BME280;60061;52.080;5.312;2022-09-03T09:52:00;101057.0;;;25.62;38.44
34454;BME280;60061;52.080;5.312;2022-09-03T09:53:40;101062.0;;;25.6;38.75
34454;BME280;60061;52.080;5.312;2022-09-03T09:55:19;101061.0;;;25.59;38.67
34454;BME280;60061;52.080;5.312;2022-09-03T09:57:00;101060.0;;;25.71;38.39
34454;BME280;60061;52.080;5.312;2022-09-03T09:58:38;101061.0;;;25.67;37.72
34454;BME280;60061;52.080;5.312;2022-09-03T10:02:08;101058.0;;;25.69;38.46
34454;BME280;60061;52.080;5.312;2022-09-03T10:03:48;101067.0;;;25.79;37.61
34454;BME280;60061;52.080;5.312;2022-09-03T10:05:28;101065.0;;;25.95;37.68
34454;BME280;60061;52.080;5.312;2022-09-03T10:07:20;101066.0;;;26.03;37.5
34454;BME280;60061;52.080;5.312;2022-09-03T10:10:45;101057.0;;;26.16;37.57
34454;BME280;60061;52.080;5.312;2022-09-03T10:12:28;101056.0;;;26.25;37.79
34454;BME280;60061;52.080;5.312;2022-09-03T10:14:11;101057.0;;;26.46;37.67
34454;BME280;60061;52.080;5.312;2022-09-03T10:15:59;101055.0;;;26.56;37.56
34454;BME280;60061;52.080;5.312;2022-09-03T10:17:45;101055.0;;;26.81;36.92
34454;BME280;60061;52.080;5.312;2022-09-03T10:21:23;101051.0;;;26.84;37.14
34454;BME280;60061;52.080;5.312;2022-09-03T10:23:12;101046.0;;;26.97;36.46
34454;BME280;60061;52.080;5.312;2022-09-03T10:24:56;101044.0;;;26.92;36.78
34454;BME280;60061;52.080;5.312;2022-09-03T10:26:35;101053.0;;;27.0;36.33
34454;BME280;60061;52.080;5.312;2022-09-03T10:28:12;101046.0;;;27.13;36.1
34454;BME280;60061;52.080;5.312;2022-09-03T10:31:34;101045.0;;;27.07;35.93
34454;BME280;60061;52.080;5.312;2022-09-03T10:33:23;101046.0;;;27.2;36.17
34454;BME280;60061;52.080;5.312;2022-09-03T10:35:05;101044.0;;;27.11;35.53
34454;BME280;60061;52.080;5.312;2022-09-03T10:36:59;101046.0;;;27.32;35.6
34454;BME280;60061;52.080;5.312;2022-09-03T10:38:41;101038.0;;;27.32;35.44
34454;BME280;60061;52.080;5.312;2022-09-03T10:42:19;101047.0;;;27.23;35.21
34454;BME280;60061;52.080;5.312;2022-09-03T10:44:39;101042.0;;;27.33;35.22
34454;BME280;60061;52.080;5.312;2022-09-03T10:46:25;101041.0;;;27.34;35.94
34454;BME280;60061;52.080;5.312;2022-09-03T10:48:18;101035.0;;;27.47;35.6
34454;BME280;60061;52.080;5.312;2022-09-03T10:50:26;101033.0;;;27.57;35.6
34454;BME280;60061;52.080;5.312;2022-09-03T10:52:10;101036.0;;;27.84;35.28
34454;BME280;60061;52.080;5.312;2022-09-03T10:54:04;101032.0;;;27.95;34.72
34454;BME280;60061;52.080;5.312;2022-09-03T10:55:59;101033.0;;;28.06;34.18
34454;BME280;60061;52.080;5.312;2022-09-03T10:57:44;101037.0;;;28.13;34.71
34454;BME280;60061;52.080;5.312;2022-09-03T10:59:37;101034.0;;;28.15;34.08
34454;BME280;60061;52.080;5.312;2022-09-03T11:03:26;101033.0;;;28.15;35.24
34454;BME280;60061;52.080;5.312;2022-09-03T11:05:18;101035.0;;;28.38;33.6
34454;BME280;60061;52.080;5.312;2022-09-03T11:07:00;101027.0;;;28.25;34.57
34454;BME280;60061;52.080;5.312;2022-09-03T11:08:41;101040.0;;;28.19;33.99
34454;BME280;60061;52.080;5.312;2022-09-03T11:10:22;101034.0;;;28.26;33.76
34454;BME280;60061;52.080;5.312;2022-09-03T11:12:05;101032.0;;;28.3;34.42
34454;BME280;60061;52.080;5.312;2022-09-03T11:15:27;101028.0;;;28.35;34.35
34454;BME280;60061;52.080;5.312;2022-09-03T11:17:11;101031.0;;;28.41;33.75